createdAt,value
2018-04-01T00:02:34.993Z,8.20
2018-04-01T00:07:27.835Z,8.20
2018-04-01T00:12:21.434Z,7.90
2018-04-01T00:17:14.287Z,7.90
2018-04-01T00:22:07.146Z,7.70
2018-04-01T00:27:00.976Z,7.40
2018-04-01T00:31:53.823Z,7.30
2018-04-01T00:36:46.706Z,7.20
2018-04-01T00:41:39.574Z,7.00
2018-04-01T00:46:32.442Z,6.90
2018-04-01T00:51:25.322Z,6.80
2018-04-01T00:56:19.716Z,6.70
2018-04-01T01:01:12.583Z,6.70
2018-04-01T01:06:05.416Z,6.70
2018-04-01T01:10:59.038Z,6.60
2018-04-01T01:15:51.862Z,6.50
2018-04-01T01:20:44.719Z,6.50
2018-04-01T01:25:38.328Z,6.30
2018-04-01T01:30:31.222Z,6.30
2018-04-01T01:35:24.067Z,6.30
2018-04-01T01:40:17.084Z,6.20
2018-04-01T01:45:09.926Z,6.30
2018-04-01T01:50:02.781Z,6.30
2018-04-01T01:54:55.768Z,6.40
2018-04-01T01:59:48.742Z,6.60
2018-04-01T02:04:41.614Z,6.80
2018-04-01T02:09:34.221Z,6.80
2018-04-01T02:14:27.834Z,6.90
2018-04-01T02:19:20.812Z,6.90
2018-04-01T02:24:13.415Z,6.90
2018-04-01T02:29:06.262Z,6.90
2018-04-01T02:33:59.121Z,6.80
2018-04-01T02:38:51.973Z,6.80
2018-04-01T02:43:44.797Z,6.80
2018-04-01T02:48:38.422Z,6.70
2018-04-01T02:53:31.275Z,6.70
2018-04-01T02:58:24.118Z,6.70
2018-04-01T03:03:17.741Z,6.80
2018-04-01T03:08:10.573Z,6.80
2018-04-01T03:13:04.191Z,6.90
2018-04-01T03:17:57.034Z,6.90
2018-04-01T03:22:49.976Z,7.00
2018-04-01T03:27:42.825Z,7.10
2018-04-01T03:32:35.672Z,7.20
2018-04-01T03:37:28.533Z,7.30
2018-04-01T03:42:21.370Z,7.40
2018-04-01T03:47:14.195Z,7.40
2018-04-01T03:52:07.129Z,7.50
2018-04-01T03:56:59.977Z,7.50
2018-04-01T04:01:52.595Z,7.50
2018-04-01T04:06:45.218Z,7.50
2018-04-01T04:11:38.080Z,7.50
2018-04-01T04:16:30.934Z,7.50
2018-04-01T04:21:23.921Z,7.50
2018-04-01T04:26:16.799Z,7.40
2018-04-01T04:31:09.814Z,7.40
2018-04-01T04:36:03.448Z,7.30
2018-04-01T04:40:56.316Z,7.30
2018-04-01T04:45:49.201Z,7.30
2018-04-01T04:50:42.225Z,7.30
2018-04-01T04:55:34.845Z,7.40
2018-04-01T05:00:27.720Z,7.40
2018-04-01T05:05:20.584Z,7.40
2018-04-01T05:10:13.452Z,7.40
2018-04-01T05:15:06.293Z,7.50
2018-04-01T05:19:59.260Z,7.60
2018-04-01T05:24:52.879Z,7.60
2018-04-01T05:29:45.742Z,7.60
2018-04-01T05:34:38.590Z,7.60
2018-04-01T05:39:31.442Z,7.60
2018-04-01T05:44:24.058Z,7.50
2018-04-01T05:49:17.240Z,7.60
2018-04-01T05:54:10.200Z,7.60
2018-04-01T05:59:03.781Z,7.70
2018-04-01T06:03:57.419Z,7.80
2018-04-01T06:08:50.283Z,7.80
2018-04-01T06:13:43.126Z,7.80
2018-04-01T06:18:35.990Z,8.00
2018-04-01T06:23:28.883Z,8.10
2018-04-01T06:28:21.764Z,8.10
2018-04-01T06:33:14.612Z,8.10
2018-04-01T06:38:07.712Z,8.20
2018-04-01T06:43:00.550Z,8.10
2018-04-01T06:47:53.424Z,8.10
2018-04-01T06:52:46.288Z,8.10
2018-04-01T06:57:39.138Z,8.00
2018-04-01T07:02:32.019Z,7.80
2018-04-01T07:07:25.077Z,7.70
2018-04-01T07:12:19.659Z,7.60
2018-04-01T07:17:13.490Z,7.60
2018-04-01T07:22:06.384Z,7.50
2018-04-01T07:26:58.989Z,7.50
2018-04-01T07:31:52.846Z,7.40
2018-04-01T07:36:45.689Z,7.50
2018-04-01T07:41:38.564Z,7.50
2018-04-01T07:46:31.178Z,7.60
2018-04-01T07:51:24.025Z,7.80
2018-04-01T07:56:17.653Z,8.20
2018-04-01T08:01:10.549Z,8.20
2018-04-01T08:06:03.418Z,8.30
2018-04-01T08:10:56.257Z,8.20
2018-04-01T08:15:50.941Z,8.10
2018-04-01T08:20:43.808Z,8.00
2018-04-01T08:25:47.705Z,8.20
2018-04-01T08:30:40.636Z,8.20
2018-04-01T08:35:33.501Z,8.50
2018-04-01T08:40:26.281Z,8.50
2018-04-01T08:45:19.354Z,8.50
2018-04-01T08:50:12.206Z,8.50
2018-04-01T08:55:05.258Z,8.40
2018-04-01T09:55:50.468Z,8.40
2018-04-01T10:01:00.150Z,8.40
2018-04-01T10:05:54.322Z,8.30
2018-04-01T10:10:48.766Z,8.40
2018-04-01T10:15:43.141Z,8.30
2018-04-01T10:20:37.540Z,8.20
2018-04-01T10:25:32.022Z,8.10
2018-04-01T10:30:26.799Z,8.20
2018-04-01T10:35:21.237Z,8.20
2018-04-01T10:40:15.602Z,8.20
2018-04-01T10:45:10.091Z,8.20
2018-04-01T10:50:06.460Z,8.10
2018-04-01T10:54:59.318Z,8.10
2018-04-01T10:59:52.402Z,8.20
2018-04-01T11:04:45.350Z,8.20
2018-04-01T11:09:38.197Z,8.30
2018-04-01T11:14:31.071Z,8.30
2018-04-01T11:19:23.930Z,8.40
2018-04-01T11:24:16.588Z,8.40
2018-04-01T11:29:09.452Z,8.40
2018-04-01T11:34:02.290Z,8.40
2018-04-01T11:38:55.655Z,8.60
2018-04-01T11:43:49.286Z,8.70
2018-04-01T11:48:42.138Z,8.60
2018-04-01T11:53:34.997Z,8.70
2018-04-01T11:58:28.052Z,8.70
2018-04-01T12:03:21.887Z,8.60
2018-04-01T12:08:14.749Z,8.60
2018-04-01T12:13:07.594Z,8.70
2018-04-01T12:18:00.442Z,8.70
2018-04-01T12:22:54.071Z,8.90
2018-04-01T12:27:46.920Z,8.80
2018-04-01T12:32:39.838Z,8.90
2018-04-01T12:37:32.668Z,9.00
2018-04-01T12:42:25.638Z,9.20
2018-04-01T12:47:18.482Z,9.40
2018-04-01T12:52:11.336Z,9.50
2018-04-01T12:57:04.242Z,9.50
2018-04-01T13:01:57.108Z,9.40
2018-04-01T13:06:49.968Z,9.40
2018-04-01T13:11:42.810Z,9.60
2018-04-01T13:16:35.668Z,9.90
2018-04-01T13:21:29.390Z,10.50
2018-04-01T13:26:22.229Z,10.50
2018-04-01T13:31:15.863Z,11.40
2018-04-01T13:36:08.701Z,11.40
2018-04-01T13:41:01.552Z,11.70
2018-04-01T13:45:55.152Z,12.30
2018-04-01T13:50:48.045Z,12.20
2018-04-01T13:55:41.003Z,12.40
2018-04-01T14:00:33.622Z,12.40
2018-04-01T14:05:27.253Z,11.40
2018-04-01T14:10:20.231Z,11.40
2018-04-01T14:15:13.070Z,11.30
2018-04-01T14:20:05.905Z,11.50
2018-04-01T14:24:59.556Z,11.30
2018-04-01T14:29:52.699Z,11.20
2018-04-01T14:34:45.550Z,10.90
2018-04-01T14:39:38.389Z,10.60
2018-04-01T14:44:31.230Z,10.20
2018-04-01T14:49:24.087Z,9.90
2018-04-01T14:54:16.915Z,9.60
2018-04-01T14:59:10.534Z,9.10
2018-04-01T15:04:03.500Z,9.10
2018-04-01T15:08:56.366Z,9.00
2018-04-01T15:13:49.242Z,9.00
2018-04-01T15:18:42.069Z,9.30
2018-04-01T15:23:35.917Z,9.50
2018-04-01T15:28:28.759Z,9.50
2018-04-01T15:33:21.370Z,9.40
2018-04-01T15:38:14.221Z,9.50
2018-04-01T15:43:18.971Z,9.50
2018-04-01T15:48:12.648Z,9.40
2018-04-01T15:53:05.763Z,9.30
2018-04-01T15:57:59.427Z,8.80
2018-04-01T16:02:52.350Z,8.80
2018-04-01T16:07:45.248Z,8.60
2018-04-01T16:12:38.271Z,8.50
2018-04-01T16:17:31.236Z,8.30
2018-04-01T16:22:24.076Z,8.20
2018-04-01T16:27:17.929Z,8.10
2018-04-01T16:32:10.766Z,8.00
2018-04-01T16:37:03.600Z,8.00
2018-04-01T16:41:57.495Z,7.90
2018-04-01T16:46:50.372Z,7.80
2018-04-01T16:51:43.972Z,7.90
2018-04-01T16:56:38.503Z,7.90
2018-04-01T17:01:31.451Z,7.90
2018-04-01T17:06:25.167Z,8.10
2018-04-01T17:11:18.631Z,8.00
2018-04-01T17:16:11.534Z,8.00
2018-04-01T17:21:04.370Z,8.00
2018-04-01T17:25:57.352Z,8.00
2018-04-01T17:30:50.262Z,8.00
2018-04-01T17:35:43.878Z,7.90
2018-04-01T17:40:36.966Z,7.90
2018-04-01T17:45:29.853Z,7.80
2018-04-01T17:50:22.686Z,7.80
2018-04-01T17:55:15.548Z,7.70
2018-04-01T18:00:08.766Z,7.70
2018-04-01T18:05:01.659Z,7.70
2018-04-01T18:09:55.288Z,7.60
2018-04-01T18:14:49.291Z,7.60
2018-04-01T18:19:42.346Z,7.50
2018-04-01T18:24:35.194Z,7.50
2018-04-01T18:29:29.004Z,7.50
2018-04-01T18:34:21.864Z,7.40
2018-04-01T18:39:14.809Z,7.50
2018-04-01T18:44:08.644Z,7.40
2018-04-01T18:49:01.571Z,7.40
2018-04-01T18:53:55.188Z,7.40
2018-04-01T18:58:48.740Z,7.40
2018-04-01T19:03:42.331Z,7.40
2018-04-01T19:08:35.950Z,7.40
2018-04-01T19:13:28.902Z,7.50
2018-04-01T19:18:23.266Z,7.50
2018-04-01T19:23:17.403Z,7.50
2018-04-01T19:28:11.857Z,7.60
2018-04-01T19:33:06.294Z,7.60
2018-04-01T19:38:01.626Z,7.60
2018-04-01T19:42:56.056Z,7.60
2018-04-01T19:47:50.766Z,7.60
2018-04-01T19:52:45.379Z,7.60
2018-04-01T19:57:39.940Z,7.50
2018-04-01T20:02:37.258Z,7.50
2018-04-01T20:07:32.009Z,7.50
2018-04-01T20:12:34.351Z,7.40
2018-04-01T20:17:33.756Z,7.50
2018-04-01T20:22:30.676Z,7.40
2018-04-01T20:27:26.097Z,7.30
2018-04-01T20:32:24.629Z,7.30
2018-04-01T20:37:19.406Z,7.30
2018-04-01T20:42:15.392Z,7.30
2018-04-01T20:47:13.554Z,7.30
2018-04-01T20:52:08.820Z,7.30
2018-04-01T20:57:04.088Z,7.30
2018-04-01T21:02:02.766Z,7.20
2018-04-01T21:06:58.430Z,7.20
2018-04-01T21:11:54.636Z,7.10
2018-04-01T21:16:50.188Z,7.10
2018-04-01T21:21:44.979Z,7.10
2018-04-01T21:26:40.587Z,7.10
2018-04-01T21:31:35.051Z,7.10
2018-04-01T21:36:29.444Z,7.10
2018-04-01T21:41:23.812Z,7.00
2018-04-01T21:46:18.178Z,7.00
2018-04-01T21:51:13.330Z,7.00
2018-04-01T21:56:07.729Z,7.00
2018-04-01T22:01:02.061Z,6.90
2018-04-01T22:05:56.464Z,6.90
2018-04-01T22:10:51.212Z,6.70
2018-04-01T22:15:46.359Z,6.60
2018-04-01T22:20:40.731Z,6.60
2018-04-01T22:25:35.112Z,6.60
2018-04-01T22:30:29.511Z,6.60
2018-04-01T22:35:23.928Z,6.60
2018-04-01T22:40:18.289Z,6.50
2018-04-01T22:45:12.729Z,6.50
2018-04-01T22:50:06.885Z,6.50
2018-04-01T22:55:01.311Z,6.50
2018-04-01T22:59:55.676Z,6.50
2018-04-01T23:04:50.957Z,6.50
2018-04-01T23:09:45.370Z,6.40
2018-04-01T23:14:39.765Z,6.50
2018-04-01T23:19:34.989Z,6.60
2018-04-01T23:24:29.388Z,6.60
2018-04-01T23:29:24.516Z,6.70
2018-04-01T23:34:19.019Z,6.70
2018-04-01T23:39:13.494Z,6.80
2018-04-01T23:44:07.881Z,6.80
2018-04-01T23:49:02.511Z,6.80
2018-04-01T23:53:56.865Z,6.90
2018-04-01T23:58:52.053Z,6.80
